Time;durP1;ratioP1;P1;durP2;ratioP2;P2;SDS_P1;SDS_P2;PMS_P1;PMS_P2;Temp;Humidity;BMP_temperature;BMP_pressure;BME280_temperature;BME280_humidity;BME280_pressure;Samples;Min_cycle;Max_cycle;Signal;HPM_P1;HPM_P2
2023/12/17 00:01:17;;;;;;;6.35;5.30;;;;;;;;;;4844802;29;20567;-78
2023/12/17 00:03:49;;;;;;;8.77;6.07;;;;;;;;;;4831798;29;20041;-78
2023/12/17 00:06:16;;;;;;;6.47;5.90;;;;;;;;;;4851359;29;20120;-77
2023/12/17 00:08:43;;;;;;;13.98;11.85;;;;;;;;;;4827461;29;20042;-78
2023/12/17 00:11:09;;;;;;;6.47;5.43;;;;;;;;;;4843056;29;20074;-78
2023/12/17 00:13:36;;;;;;;10.70;7.10;;;;;;;;;;4844611;29;20037;-76
2023/12/17 00:16:02;;;;;;;13.38;10.38;;;;;;;;;;4876177;29;20041;-78
2023/12/17 00:18:29;;;;;;;7.00;5.97;;;;;;;;;;4849298;29;20068;-77
2023/12/17 00:20:55;;;;;;;13.52;10.27;;;;;;;;;;4829125;29;20591;-76
2023/12/17 00:23:21;;;;;;;13.80;8.90;;;;;;;;;;4841588;29;20037;-77
2023/12/17 00:25:47;;;;;;;8.45;7.45;;;;;;;;;;4872456;29;20542;-77
2023/12/17 00:28:16;;;;;;;13.88;9.02;;;;;;;;;;4828694;29;20041;-77
2023/12/17 00:30:42;;;;;;;7.70;7.00;;;;;;;;;;4828677;29;20523;-77
2023/12/17 00:33:08;;;;;;;12.15;9.20;;;;;;;;;;4858693;29;20056;-77
2023/12/17 00:35:34;;;;;;;13.63;8.02;;;;;;;;;;4826358;29;20037;-77
2023/12/17 00:38:01;;;;;;;14.27;10.70;;;;;;;;;;4825359;29;20070;-78
2023/12/17 00:40:27;;;;;;;14.50;10.15;;;;;;;;;;4845526;29;20124;-77
2023/12/17 00:42:53;;;;;;;20.42;14.52;;;;;;;;;;4845539;29;20041;-78
2023/12/17 00:45:19;;;;;;;15.23;9.52;;;;;;;;;;4831667;29;20033;-78
2023/12/17 00:47:45;;;;;;;18.65;11.85;;;;;;;;;;4875787;29;20262;-79
2023/12/17 00:50:11;;;;;;;14.45;9.25;;;;;;;;;;4844889;29;20121;-77
2023/12/17 00:52:37;;;;;;;17.20;11.93;;;;;;;;;;4860941;29;20037;-78
2023/12/17 00:55:04;;;;;;;12.68;9.25;;;;;;;;;;4860637;29;20085;-79
2023/12/17 00:57:32;;;;;;;12.43;9.10;;;;;;;;;;4859255;29;20531;-79
2023/12/17 00:59:59;;;;;;;6.75;6.05;;;;;;;;;;4859596;29;20033;-78
2023/12/17 01:02:25;;;;;;;5.88;5.40;;;;;;;;;;4830158;29;20037;-79
2023/12/17 01:04:51;;;;;;;15.70;12.65;;;;;;;;;;4828017;29;20042;-76
2023/12/17 01:07:17;;;;;;;11.55;10.35;;;;;;;;;;4860959;29;20053;-78
2023/12/17 01:09:43;;;;;;;10.50;8.50;;;;;;;;;;4876360;29;20512;-77
2023/12/17 01:12:09;;;;;;;16.08;12.18;;;;;;;;;;4844807;29;20040;-78
2023/12/17 01:14:38;;;;;;;15.30;12.15;;;;;;;;;;4845233;29;20041;-78
2023/12/17 01:17:04;;;;;;;10.95;9.05;;;;;;;;;;4843480;29;20468;-80
2023/12/17 01:19:30;;;;;;;18.65;13.77;;;;;;;;;;4874688;29;20061;-78
2023/12/17 01:21:57;;;;;;;14.48;10.25;;;;;;;;;;4843390;29;20685;-77
2023/12/17 01:24:23;;;;;;;19.20;11.32;;;;;;;;;;4873947;29;20519;-76
2023/12/17 01:26:49;;;;;;;17.20;13.25;;;;;;;;;;4828682;29;20135;-76
2023/12/17 01:29:15;;;;;;;10.73;8.10;;;;;;;;;;4827818;29;20048;-77
2023/12/17 01:31:40;;;;;;;11.18;6.53;;;;;;;;;;4844709;29;20033;-76
2023/12/17 01:34:09;;;;;;;6.75;6.15;;;;;;;;;;4828044;29;20041;-77
2023/12/17 01:36:35;;;;;;;11.25;7.75;;;;;;;;;;4859250;29;20025;-77
2023/12/17 01:39:07;;;;;;;16.17;10.95;;;;;;;;;;4873598;29;20558;-75
2023/12/17 01:41:33;;;;;;;12.40;9.63;;;;;;;;;;4827038;29;20056;-76
2023/12/17 01:43:59;;;;;;;10.88;9.57;;;;;;;;;;4827602;29;20496;-75
2023/12/17 01:46:25;;;;;;;11.30;8.40;;;;;;;;;;4859312;29;20124;-77
2023/12/17 01:48:51;;;;;;;13.23;10.02;;;;;;;;;;4855483;29;20045;-77
2023/12/17 01:51:19;;;;;;;9.95;7.13;;;;;;;;;;4842246;29;20065;-76
2023/12/17 01:53:45;;;;;;;10.20;8.38;;;;;;;;;;4843018;29;20037;-76
2023/12/17 01:56:11;;;;;;;6.15;5.55;;;;;;;;;;4873718;29;20029;-77
2023/12/17 01:58:37;;;;;;;7.93;6.90;;;;;;;;;;4859480;29;20038;-78
2023/12/17 02:01:03;;;;;;;9.35;7.93;;;;;;;;;;4843720;29;20044;-78
2023/12/17 02:03:29;;;;;;;8.95;7.53;;;;;;;;;;4842487;29;20045;-77
2023/12/17 02:05:55;;;;;;;7.38;6.65;;;;;;;;;;4842581;29;20025;-78
2023/12/17 02:08:21;;;;;;;16.25;12.55;;;;;;;;;;4832256;29;20068;-77
2023/12/17 02:10:47;;;;;;;9.35;6.95;;;;;;;;;;4879671;29;20036;-78
2023/12/17 02:13:15;;;;;;;11.73;6.78;;;;;;;;;;4856247;29;20037;-78
2023/12/17 02:15:41;;;;;;;12.55;11.18;;;;;;;;;;4880292;29;20036;-77
2023/12/17 02:18:07;;;;;;;9.23;8.15;;;;;;;;;;4856048;29;20074;-77
2023/12/17 02:20:53;;;;;;;12.10;8.68;;;;;;;;;;4835357;29;20041;-77
2023/12/17 02:23:19;;;;;;;10.40;8.25;;;;;;;;;;4843072;29;20107;-75
2023/12/17 02:25:45;;;;;;;12.68;9.00;;;;;;;;;;4859166;29;20044;-75
2023/12/17 02:28:11;;;;;;;14.07;10.02;;;;;;;;;;4858380;29;20121;-76
2023/12/17 02:30:40;;;;;;;7.63;6.88;;;;;;;;;;4824114;29;20116;-77
2023/12/17 02:33:32;;;;;;;10.65;8.00;;;;;;;;;;4867030;29;20070;-76
2023/12/17 02:35:59;;;;;;;8.05;7.25;;;;;;;;;;4858076;29;20071;-77
2023/12/17 02:38:32;;;;;;;13.13;11.43;;;;;;;;;;4860688;29;20037;-76
2023/12/17 02:40:58;;;;;;;;;;;;;;;;;;4848897;29;20084;-76
2023/12/17 02:43:23;;;;;;;6.40;5.88;;;;;;;;;;4865483;29;19969;-76
2023/12/17 02:45:49;;;;;;;7.13;6.43;;;;;;;;;;4896491;29;20040;-75
2023/12/17 02:48:15;;;;;;;13.82;10.82;;;;;;;;;;4864985;29;20037;-75
2023/12/17 02:50:41;;;;;;;8.85;8.05;;;;;;;;;;4879050;29;20099;-77
2023/12/17 02:53:07;;;;;;;11.43;9.70;;;;;;;;;;4880068;29;20144;-76
2023/12/17 02:55:33;;;;;;;13.88;10.43;;;;;;;;;;4849982;29;20127;-76
2023/12/17 02:57:59;;;;;;;7.18;6.15;;;;;;;;;;4864654;29;20103;-75
2023/12/17 03:00:32;;;;;;;5.28;4.88;;;;;;;;;;4880352;29;20052;-77
2023/12/17 03:03:21;;;;;;;7.25;6.07;;;;;;;;;;4904392;29;20037;-78
2023/12/17 03:05:49;;;;;;;10.05;9.02;;;;;;;;;;4870002;29;20048;-78
2023/12/17 03:08:15;;;;;;;5.10;4.53;;;;;;;;;;4874376;29;20053;-78
2023/12/17 03:10:43;;;;;;;9.55;8.18;;;;;;;;;;4907958;29;20052;-79
2023/12/17 03:13:09;;;;;;;11.20;9.68;;;;;;;;;;4844472;29;20041;-77
2023/12/17 03:15:35;;;;;;;9.93;8.60;;;;;;;;;;4873391;29;20044;-79
2023/12/17 03:18:03;;;;;;;10.30;7.57;;;;;;;;;;4870357;29;20464;-78
2023/12/17 03:20:30;;;;;;;13.93;11.77;;;;;;;;;;4865577;29;20048;-77
2023/12/17 03:22:56;;;;;;;15.45;8.82;;;;;;;;;;4898210;29;20033;-77
2023/12/17 03:25:22;;;;;;;6.55;5.50;;;;;;;;;;4881365;29;20036;-78
2023/12/17 03:27:48;;;;;;;11.77;5.50;;;;;;;;;;4862965;29;20035;-78
2023/12/17 03:30:14;;;;;;;12.13;8.45;;;;;;;;;;4862657;29;20041;-78
2023/12/17 03:32:40;;;;;;;12.55;11.30;;;;;;;;;;4869585;29;20578;-77
2023/12/17 03:35:07;;;;;;;7.68;6.97;;;;;;;;;;4879877;29;20140;-79
2023/12/17 03:37:33;;;;;;;10.70;8.68;;;;;;;;;;4864923;29;20419;-79
2023/12/17 03:39:59;;;;;;;5.65;5.13;;;;;;;;;;4897326;29;20036;-79
2023/12/17 03:42:25;;;;;;;10.77;9.65;;;;;;;;;;4880632;29;20048;-79
2023/12/17 03:44:50;;;;;;;9.07;7.25;;;;;;;;;;4831786;29;20041;-78
2023/12/17 03:47:16;;;;;;;7.05;6.35;;;;;;;;;;4865056;29;20033;-78
2023/12/17 03:49:42;;;;;;;9.50;8.40;;;;;;;;;;4848570;29;20598;-77
2023/12/17 03:52:08;;;;;;;9.05;5.47;;;;;;;;;;4879506;29;20029;-77
2023/12/17 03:54:34;;;;;;;9.65;8.70;;;;;;;;;;4864676;29;20047;-77
2023/12/17 03:57:00;;;;;;;8.70;6.70;;;;;;;;;;4849908;29;20096;-78
2023/12/17 03:59:26;;;;;;;6.07;5.07;;;;;;;;;;4832540;29;20051;-77
2023/12/17 04:01:52;;;;;;;7.47;6.70;;;;;;;;;;4834818;29;20048;-77
2023/12/17 04:04:18;;;;;;;9.15;6.63;;;;;;;;;;4845507;29;20032;-76
2023/12/17 04:06:46;;;;;;;8.82;7.93;;;;;;;;;;4830456;29;20595;-76
2023/12/17 04:09:12;;;;;;;9.02;5.85;;;;;;;;;;4860747;29;20036;-77
2023/12/17 04:11:38;;;;;;;8.88;7.47;;;;;;;;;;4831201;29;20543;-76
2023/12/17 04:14:03;;;;;;;6.55;5.95;;;;;;;;;;4847346;29;20047;-77
2023/12/17 04:16:51;;;;;;;6.03;5.43;;;;;;;;;;4881387;29;20792;-77
2023/12/17 04:19:26;;;;;;;9.70;8.68;;;;;;;;;;4851398;29;20088;-78
2023/12/17 04:21:52;;;;;;;11.70;9.23;;;;;;;;;;4851795;29;20797;-79
2023/12/17 04:24:18;;;;;;;9.40;7.22;;;;;;;;;;4867309;29;20131;-79
2023/12/17 04:26:44;;;;;;;5.95;5.43;;;;;;;;;;4835137;29;20079;-78
2023/12/17 04:29:10;;;;;;;6.93;5.88;;;;;;;;;;4849031;29;20104;-78
2023/12/17 04:31:36;;;;;;;5.88;5.35;;;;;;;;;;4851748;29;20040;-80
2023/12/17 04:34:13;;;;;;;8.30;6.30;;;;;;;;;;4854315;29;20468;-80
2023/12/17 04:36:40;;;;;;;9.90;7.30;;;;;;;;;;4849761;29;20065;-80
2023/12/17 04:39:07;;;;;;;9.38;8.43;;;;;;;;;;4862650;29;20671;-78
2023/12/17 04:41:35;;;;;;;5.53;4.88;;;;;;;;;;4878405;29;20114;-78
2023/12/17 04:44:02;;;;;;;6.43;4.93;;;;;;;;;;4848542;29;20044;-77
2023/12/17 04:46:33;;;;;;;5.38;4.88;;;;;;;;;;4865735;29;20135;-79
2023/12/17 04:49:00;;;;;;;11.02;9.90;;;;;;;;;;4848573;29;20139;-78
2023/12/17 04:51:34;;;;;;;9.27;8.30;;;;;;;;;;4876414;29;20039;-78
2023/12/17 04:54:00;;;;;;;7.85;6.18;;;;;;;;;;4862431;29;20033;-76
2023/12/17 04:56:26;;;;;;;6.78;6.07;;;;;;;;;;4830164;29;20032;-77
2023/12/17 04:58:52;;;;;;;10.90;6.93;;;;;;;;;;4894372;29;20119;-77
2023/12/17 05:01:18;;;;;;;9.32;8.07;;;;;;;;;;4841353;29;20035;-77
2023/12/17 05:03:44;;;;;;;7.22;6.53;;;;;;;;;;4879247;29;20079;-77
2023/12/17 05:06:11;;;;;;;6.97;5.32;;;;;;;;;;4859138;29;20041;-78
2023/12/17 05:08:37;;;;;;;7.63;6.88;;;;;;;;;;4899116;29;20036;-77
2023/12/17 05:11:03;;;;;;;7.97;6.55;;;;;;;;;;4836266;29;20139;-77
2023/12/17 05:13:31;;;;;;;8.93;7.22;;;;;;;;;;4849657;29;20464;-78
2023/12/17 05:15:57;;;;;;;6.75;6.05;;;;;;;;;;4879702;29;20052;-77
2023/12/17 05:18:23;;;;;;;6.78;5.97;;;;;;;;;;4864450;29;20028;-78
2023/12/17 05:20:50;;;;;;;10.45;8.30;;;;;;;;;;4848199;29;20036;-78
2023/12/17 05:23:30;;;;;;;7.43;6.72;;;;;;;;;;4880775;29;20075;-79
2023/12/17 05:25:59;;;;;;;8.32;6.28;;;;;;;;;;4866271;29;20065;-79
2023/12/17 05:28:25;;;;;;;8.63;7.47;;;;;;;;;;4834601;29;20036;-78
2023/12/17 05:30:52;;;;;;;9.05;8.15;;;;;;;;;;4847604;29;20538;-77
2023/12/17 05:33:18;;;;;;;7.32;5.75;;;;;;;;;;4863141;29;20135;-77
2023/12/17 05:35:44;;;;;;;5.88;5.38;;;;;;;;;;4832629;29;20547;-77
2023/12/17 05:38:10;;;;;;;7.10;5.70;;;;;;;;;;4862882;29;20414;-77
2023/12/17 05:40:36;;;;;;;6.95;6.28;;;;;;;;;;4831961;29;20045;-78
2023/12/17 05:43:03;;;;;;;7.63;6.85;;;;;;;;;;4862618;29;20495;-77
2023/12/17 05:45:35;;;;;;;8.23;7.35;;;;;;;;;;4860321;29;20028;-78
2023/12/17 05:48:00;;;;;;;8.68;7.47;;;;;;;;;;4847523;29;20104;-78
2023/12/17 05:50:26;;;;;;;12.23;6.95;;;;;;;;;;4829879;29;20470;-77
2023/12/17 05:52:52;;;;;;;7.07;5.70;;;;;;;;;;4846382;29;20419;-77
2023/12/17 05:55:20;;;;;;;5.50;5.03;;;;;;;;;;4827298;29;20064;-76
2023/12/17 05:57:49;;;;;;;8.23;6.05;;;;;;;;;;4862069;29;20744;-76
2023/12/17 06:00:16;;;;;;;7.45;6.70;;;;;;;;;;4896395;29;20040;-76
2023/12/17 06:02:41;;;;;;;7.22;6.53;;;;;;;;;;4892509;29;20403;-75
2023/12/17 06:05:07;;;;;;;9.35;7.13;;;;;;;;;;4893072;29;20041;-75
2023/12/17 06:07:33;;;;;;;6.38;5.80;;;;;;;;;;4907491;29;20513;-77
2023/12/17 06:09:59;;;;;;;5.43;4.95;;;;;;;;;;4885307;29;20041;-76
2023/12/17 06:12:25;;;;;;;6.78;6.18;;;;;;;;;;4881641;29;20040;-76
2023/12/17 06:14:50;;;;;;;7.90;7.00;;;;;;;;;;4874605;29;20041;-75
2023/12/17 06:17:16;;;;;;;7.55;6.95;;;;;;;;;;4877386;29;20059;-77
2023/12/17 06:19:44;;;;;;;8.38;7.55;;;;;;;;;;4858178;29;20038;-77
2023/12/17 06:22:11;;;;;;;6.40;5.80;;;;;;;;;;4899908;29;20079;-76
2023/12/17 06:24:37;;;;;;;3.65;3.40;;;;;;;;;;4898583;29;20044;-76
2023/12/17 06:27:03;;;;;;;5.53;5.03;;;;;;;;;;4881698;29;20041;-75
2023/12/17 06:29:29;;;;;;;7.50;4.70;;;;;;;;;;4898898;29;20467;-76
2023/12/17 06:31:55;;;;;;;6.38;5.85;;;;;;;;;;4896122;29;20041;-76
2023/12/17 06:34:21;;;;;;;7.47;6.13;;;;;;;;;;4895724;29;20526;-76
2023/12/17 06:36:47;;;;;;;4.15;3.75;;;;;;;;;;4898424;29;20036;-74
2023/12/17 06:39:13;;;;;;;6.75;6.00;;;;;;;;;;4876056;29;20432;-76
2023/12/17 06:41:43;;;;;;;3.90;3.65;;;;;;;;;;4878557;29;20088;-77
2023/12/17 06:44:09;;;;;;;6.55;5.47;;;;;;;;;;4897667;29;20043;-77
2023/12/17 06:46:35;;;;;;;6.78;6.15;;;;;;;;;;4875435;29;20044;-76
2023/12/17 06:49:01;;;;;;;5.18;4.78;;;;;;;;;;4893400;23;20059;-71
2023/12/17 06:51:27;;;;;;;5.43;4.90;;;;;;;;;;4899248;29;20465;-71
2023/12/17 06:53:53;;;;;;;6.68;6.10;;;;;;;;;;4891809;29;20036;-70
2023/12/17 06:56:19;;;;;;;5.30;4.88;;;;;;;;;;4871537;29;20047;-71
2023/12/17 06:58:45;;;;;;;11.02;5.90;;;;;;;;;;4898987;29;20446;-71
2023/12/17 07:01:11;;;;;;;4.05;3.65;;;;;;;;;;4913018;29;20055;-72
2023/12/17 07:03:37;;;;;;;7.93;7.22;;;;;;;;;;4915721;29;20418;-71
2023/12/17 07:06:03;;;;;;;8.40;5.18;;;;;;;;;;4898537;29;20086;-71
2023/12/17 07:08:29;;;;;;;7.97;7.18;;;;;;;;;;4916202;29;20511;-71
2023/12/17 07:10:54;;;;;;;5.72;5.20;;;;;;;;;;4903891;29;20077;-71
2023/12/17 07:13:20;;;;;;;9.50;7.90;;;;;;;;;;4880629;29;20041;-70
2023/12/17 07:15:46;;;;;;;7.15;5.90;;;;;;;;;;4880128;29;20099;-69
2023/12/17 07:18:12;;;;;;;6.53;5.95;;;;;;;;;;4897931;29;20483;-71
2023/12/17 07:20:38;;;;;;;5.95;5.38;;;;;;;;;;4879484;29;20080;-70
2023/12/17 07:23:03;;;;;;;6.60;4.90;;;;;;;;;;4864636;29;20032;-70
2023/12/17 07:25:29;;;;;;;5.40;5.00;;;;;;;;;;4902898;29;20127;-71
2023/12/17 07:27:55;;;;;;;8.70;6.97;;;;;;;;;;4898259;29;20038;-70
2023/12/17 07:30:21;;;;;;;5.03;4.53;;;;;;;;;;4908870;29;20056;-71
2023/12/17 07:32:47;;;;;;;4.57;4.28;;;;;;;;;;4867755;29;20525;-69
2023/12/17 07:35:14;;;;;;;8.52;7.70;;;;;;;;;;4896610;29;20491;-70
2023/12/17 07:37:40;;;;;;;8.48;7.68;;;;;;;;;;4896221;29;20028;-70
2023/12/17 07:40:06;;;;;;;5.88;5.32;;;;;;;;;;4895867;29;20697;-69
2023/12/17 07:42:32;;;;;;;6.32;5.80;;;;;;;;;;4911675;29;20634;-70
2023/12/17 07:44:58;;;;;;;5.40;4.90;;;;;;;;;;4926131;29;20078;-69
2023/12/17 07:47:24;;;;;;;5.60;5.03;;;;;;;;;;4917123;29;20036;-70
2023/12/17 07:49:50;;;;;;;9.27;7.05;;;;;;;;;;4923611;29;20111;-70
2023/12/17 07:52:15;;;;;;;6.93;6.28;;;;;;;;;;4895631;29;20047;-70
2023/12/17 07:54:41;;;;;;;6.70;6.10;;;;;;;;;;4896452;29;20114;-71
2023/12/17 07:57:08;;;;;;;6.30;5.60;;;;;;;;;;4911305;29;20074;-71
2023/12/17 07:59:34;;;;;;;7.65;7.05;;;;;;;;;;4896072;29;20068;-70
2023/12/17 08:01:59;;;;;;;7.93;6.10;;;;;;;;;;4898542;29;20040;-71
2023/12/17 08:04:25;;;;;;;4.65;4.15;;;;;;;;;;4917390;29;20047;-70
2023/12/17 08:06:51;;;;;;;12.55;4.22;;;;;;;;;;4904481;29;20119;-69
2023/12/17 08:09:17;;;;;;;5.80;5.20;;;;;;;;;;4897912;29;20028;-69
2023/12/17 08:11:46;;;;;;;5.82;5.20;;;;;;;;;;4881720;29;20525;-69
2023/12/17 08:14:12;;;;;;;5.70;5.10;;;;;;;;;;4895881;29;20474;-69
2023/12/17 08:16:38;;;;;;;5.78;5.15;;;;;;;;;;4897690;29;20105;-69
2023/12/17 08:19:03;;;;;;;8.40;7.55;;;;;;;;;;4895210;29;20459;-69
2023/12/17 08:21:29;;;;;;;6.18;5.53;;;;;;;;;;4895233;29;20048;-70
2023/12/17 08:23:56;;;;;;;5.03;4.50;;;;;;;;;;4894548;29;20044;-71
2023/12/17 08:26:22;;;;;;;7.13;6.35;;;;;;;;;;4901152;29;20079;-70
2023/12/17 08:28:48;;;;;;;3.10;2.90;;;;;;;;;;4913271;29;20043;-70
2023/12/17 08:31:14;;;;;;;5.68;5.18;;;;;;;;;;4902223;29;20052;-69
2023/12/17 08:33:40;;;;;;;8.93;6.00;;;;;;;;;;4877604;29;20043;-69
2023/12/17 08:36:06;;;;;;;7.00;6.10;;;;;;;;;;4894142;29;20578;-70
2023/12/17 08:38:32;;;;;;;5.32;3.85;;;;;;;;;;4894443;29;20419;-68
2023/12/17 08:40:58;;;;;;;8.43;6.53;;;;;;;;;;4904116;29;20044;-70
2023/12/17 08:43:24;;;;;;;7.57;3.97;;;;;;;;;;4913112;29;20585;-69
2023/12/17 08:45:49;;;;;;;7.50;6.07;;;;;;;;;;4912220;29;20044;-70
2023/12/17 08:48:15;;;;;;;7.22;6.10;;;;;;;;;;4895753;29;20095;-69
2023/12/17 08:50:41;;;;;;;9.32;7.85;;;;;;;;;;4911971;29;20071;-69
2023/12/17 08:53:07;;;;;;;6.05;5.50;;;;;;;;;;4895667;29;20097;-71
2023/12/17 08:55:33;;;;;;;7.13;6.50;;;;;;;;;;4912801;29;20577;-71
2023/12/17 08:57:59;;;;;;;5.80;5.20;;;;;;;;;;4912596;29;20059;-71
2023/12/17 09:00:25;;;;;;;5.82;5.22;;;;;;;;;;4895399;29;20040;-71
2023/12/17 09:02:51;;;;;;;4.32;3.92;;;;;;;;;;4895808;29;20044;-70
2023/12/17 09:05:17;;;;;;;4.88;4.38;;;;;;;;;;4895299;29;20033;-70
2023/12/17 09:07:43;;;;;;;6.85;5.97;;;;;;;;;;4916154;29;20044;-70
2023/12/17 09:10:09;;;;;;;3.40;3.03;;;;;;;;;;4913323;29;20042;-70
2023/12/17 09:12:34;;;;;;;7.15;5.95;;;;;;;;;;4911070;29;20044;-70
2023/12/17 09:15:00;;;;;;;6.38;5.43;;;;;;;;;;4912409;29;20091;-71
2023/12/17 09:17:26;;;;;;;6.55;5.95;;;;;;;;;;4909477;29;20040;-69
2023/12/17 09:19:52;;;;;;;5.20;4.65;;;;;;;;;;4910161;29;20079;-71
2023/12/17 09:22:18;;;;;;;4.60;4.18;;;;;;;;;;4911058;29;20036;-69
2023/12/17 09:24:44;;;;;;;5.53;4.75;;;;;;;;;;4912932;29;20528;-70
2023/12/17 09:27:10;;;;;;;4.95;3.92;;;;;;;;;;4895353;29;20031;-70
2023/12/17 09:29:36;;;;;;;5.00;4.50;;;;;;;;;;4895140;29;20032;-70
2023/12/17 09:32:02;;;;;;;5.32;4.82;;;;;;;;;;4893746;29;20051;-71
2023/12/17 09:34:28;;;;;;;5.07;4.68;;;;;;;;;;4911588;29;20402;-70
2023/12/17 09:36:53;;;;;;;4.63;4.32;;;;;;;;;;4910674;29;20040;-71
2023/12/17 09:39:19;;;;;;;4.10;3.70;;;;;;;;;;4895134;29;20119;-71
2023/12/17 09:41:45;;;;;;;3.20;3.00;;;;;;;;;;4894551;29;20099;-70
2023/12/17 09:44:11;;;;;;;6.10;5.50;;;;;;;;;;4911685;29;20036;-70
2023/12/17 09:46:36;;;;;;;3.45;3.15;;;;;;;;;;4903320;29;20080;-70
2023/12/17 09:49:02;;;;;;;4.97;4.57;;;;;;;;;;4905840;29;20082;-71
2023/12/17 09:51:28;;;;;;;2.22;2.13;;;;;;;;;;4910968;29;20044;-70
2023/12/17 09:53:54;;;;;;;2.80;2.60;;;;;;;;;;4911787;29;20028;-71
2023/12/17 09:56:20;;;;;;;3.67;3.38;;;;;;;;;;4911495;29;20035;-70
2023/12/17 09:58:46;;;;;;;3.00;2.80;;;;;;;;;;4911153;29;20040;-71
2023/12/17 10:01:12;;;;;;;2.88;2.67;;;;;;;;;;4913344;29;20036;-70
2023/12/17 10:03:38;;;;;;;6.00;4.47;;;;;;;;;;4913579;29;20044;-71
2023/12/17 10:06:03;;;;;;;4.00;3.70;;;;;;;;;;4877440;29;20032;-71
2023/12/17 10:08:30;;;;;;;3.25;2.95;;;;;;;;;;4911883;29;20063;-70
2023/12/17 10:10:56;;;;;;;3.90;3.15;;;;;;;;;;4908668;29;20156;-70
2023/12/17 10:13:22;;;;;;;5.13;4.75;;;;;;;;;;4893584;29;20485;-71
2023/12/17 10:15:51;;;;;;;3.60;3.30;;;;;;;;;;4892718;29;20140;-69
2023/12/17 10:18:17;;;;;;;6.57;4.93;;;;;;;;;;4890074;29;20039;-69
2023/12/17 10:20:43;;;;;;;4.35;4.05;;;;;;;;;;4908652;29;20032;-69
2023/12/17 10:23:09;;;;;;;4.88;4.38;;;;;;;;;;4908504;29;20032;-70
2023/12/17 10:25:35;;;;;;;5.35;4.85;;;;;;;;;;4891008;29;20044;-69
2023/12/17 10:28:01;;;;;;;4.88;4.35;;;;;;;;;;4909514;29;20147;-69
2023/12/17 10:30:28;;;;;;;4.20;3.85;;;;;;;;;;4909695;29;20058;-69
2023/12/17 10:32:54;;;;;;;3.38;3.13;;;;;;;;;;4909722;29;20036;-69
2023/12/17 10:35:24;;;;;;;5.63;4.35;;;;;;;;;;4877609;29;20040;-69
2023/12/17 10:37:54;;;;;;;5.55;4.70;;;;;;;;;;4910840;29;20135;-69
2023/12/17 10:40:21;;;;;;;5.75;5.32;;;;;;;;;;4891953;29;20466;-69
2023/12/17 10:42:49;;;;;;;7.25;4.75;;;;;;;;;;4876401;29;20036;-69
2023/12/17 10:45:19;;;;;;;5.17;4.70;;;;;;;;;;4895991;29;20044;-69
2023/12/17 10:47:56;;;;;;;4.17;3.80;;;;;;;;;;4894319;29;20032;-70
2023/12/17 10:50:23;;;;;;;5.90;5.30;;;;;;;;;;4911122;29;20055;-70
2023/12/17 10:52:49;;;;;;;3.33;3.03;;;;;;;;;;4911323;29;20034;-70
2023/12/17 10:55:15;;;;;;;3.28;2.85;;;;;;;;;;4910373;29;20044;-70
2023/12/17 10:57:42;;;;;;;2.25;2.15;;;;;;;;;;4914029;29;20127;-71
2023/12/17 11:00:08;;;;;;;2.58;2.40;;;;;;;;;;4914733;29;20047;-70
2023/12/17 11:02:34;;;;;;;2.33;2.13;;;;;;;;;;4898939;29;20043;-69
2023/12/17 11:05:00;;;;;;;2.50;2.30;;;;;;;;;;4901059;29;20023;-70
2023/12/17 11:07:26;;;;;;;1.73;1.63;;;;;;;;;;4917117;29;20040;-70
2023/12/17 11:09:52;;;;;;;2.03;1.80;;;;;;;;;;4900091;29;20090;-69
2023/12/17 11:12:18;;;;;;;2.10;2.00;;;;;;;;;;4917943;29;20542;-70
2023/12/17 11:14:45;;;;;;;1.98;1.88;;;;;;;;;;4918089;29;20074;-69
2023/12/17 11:17:14;;;;;;;1.55;1.52;;;;;;;;;;4911851;29;20131;-69
2023/12/17 11:19:56;;;;;;;1.83;1.73;;;;;;;;;;4898651;29;20039;-70
2023/12/17 11:22:23;;;;;;;1.98;1.67;;;;;;;;;;4916123;29;20032;-69
2023/12/17 11:24:49;;;;;;;3.83;1.58;;;;;;;;;;4915068;29;20398;-69
2023/12/17 11:27:16;;;;;;;1.70;1.67;;;;;;;;;;4895036;29;20726;-71
2023/12/17 11:29:44;;;;;;;1.30;1.30;;;;;;;;;;4885633;29;20052;-70
2023/12/17 11:32:10;;;;;;;1.70;1.60;;;;;;;;;;4894203;29;20120;-70
2023/12/17 11:34:36;;;;;;;1.52;1.52;;;;;;;;;;4895861;29;20579;-70
2023/12/17 11:37:03;;;;;;;2.00;1.90;;;;;;;;;;4878887;29;20399;-72
2023/12/17 11:39:29;;;;;;;2.90;2.10;;;;;;;;;;4896461;29;20036;-70
2023/12/17 11:41:55;;;;;;;1.98;1.80;;;;;;;;;;4896625;29;20886;-71
2023/12/17 11:44:21;;;;;;;2.15;1.83;;;;;;;;;;4864770;29;20037;-71
2023/12/17 11:46:47;;;;;;;1.98;1.88;;;;;;;;;;4880380;29;20411;-71
2023/12/17 11:49:23;;;;;;;1.38;1.30;;;;;;;;;;4880201;29;20064;-70
2023/12/17 11:51:50;;;;;;;1.67;1.65;;;;;;;;;;4864569;29;20048;-72
2023/12/17 11:54:20;;;;;;;2.38;1.90;;;;;;;;;;4875826;29;20051;-70
2023/12/17 11:56:47;;;;;;;1.42;1.42;;;;;;;;;;4902189;29;20495;-70
2023/12/17 11:59:13;;;;;;;1.75;1.65;;;;;;;;;;4876177;29;20068;-74
2023/12/17 12:01:39;;;;;;;4.18;2.45;;;;;;;;;;4913053;29;20067;-72
2023/12/17 12:04:05;;;;;;;1.50;1.50;;;;;;;;;;4908434;29;20167;-72
2023/12/17 12:06:31;;;;;;;2.00;1.90;;;;;;;;;;4894120;29;20032;-73
2023/12/17 12:08:59;;;;;;;2.20;1.70;;;;;;;;;;4894569;29;20051;-72
2023/12/17 12:11:33;;;;;;;1.70;1.60;;;;;;;;;;4899858;29;20044;-71
2023/12/17 12:13:59;;;;;;;1.83;1.73;;;;;;;;;;4911645;29;20126;-70
2023/12/17 12:16:25;;;;;;;1.67;1.58;;;;;;;;;;4897665;29;20179;-71
2023/12/17 12:19:02;;;;;;;2.10;2.00;;;;;;;;;;4896508;29;20515;-70
2023/12/17 12:21:28;;;;;;;1.42;1.42;;;;;;;;;;4891017;29;20064;-70
2023/12/17 12:23:54;;;;;;;2.35;1.60;;;;;;;;;;4878451;29;20064;-70
2023/12/17 12:26:21;;;;;;;1.10;1.10;;;;;;;;;;4879585;29;20067;-71
2023/12/17 12:28:50;;;;;;;1.73;1.63;;;;;;;;;;4915709;29;20091;-70
2023/12/17 12:31:16;;;;;;;1.67;1.48;;;;;;;;;;4886547;29;20050;-70
2023/12/17 12:33:56;;;;;;;1.52;1.42;;;;;;;;;;4879841;29;20079;-71
2023/12/17 12:36:22;;;;;;;1.90;1.80;;;;;;;;;;4912636;29;20036;-70
2023/12/17 12:39:01;;;;;;;2.00;1.90;;;;;;;;;;4897753;29;20098;-72
2023/12/17 12:41:27;;;;;;;1.58;1.48;;;;;;;;;;4913425;29;20036;-70
2023/12/17 12:43:55;;;;;;;1.55;1.55;;;;;;;;;;4865902;29;20048;-71
2023/12/17 12:46:22;;;;;;;1.55;1.45;;;;;;;;;;4914000;29;20043;-70
2023/12/17 12:48:55;;;;;;;1.38;1.38;;;;;;;;;;4897307;29;20041;-71
2023/12/17 12:51:21;;;;;;;1.27;1.27;;;;;;;;;;4897399;29;20048;-71
2023/12/17 12:53:47;;;;;;;1.17;1.08;;;;;;;;;;4897026;29;20036;-72
2023/12/17 12:56:13;;;;;;;1.10;1.10;;;;;;;;;;4896122;29;20048;-72
2023/12/17 12:58:41;;;;;;;1.25;1.25;;;;;;;;;;4913275;29;20175;-71
2023/12/17 13:01:08;;;;;;;1.80;1.70;;;;;;;;;;4880484;29;20054;-71
2023/12/17 13:03:35;;;;;;;0.90;0.90;;;;;;;;;;4912647;29;20529;-71
2023/12/17 13:06:01;;;;;;;1.13;1.13;;;;;;;;;;4895348;29;20063;-70
2023/12/17 13:08:26;;;;;;;1.52;1.42;;;;;;;;;;4911268;29;20028;-71
2023/12/17 13:10:55;;;;;;;1.08;1.08;;;;;;;;;;4910856;29;20054;-71
2023/12/17 13:13:21;;;;;;;1.67;1.20;;;;;;;;;;4894080;29;20463;-71
2023/12/17 13:15:47;;;;;;;1.25;1.25;;;;;;;;;;4895125;29;20391;-71
2023/12/17 13:18:13;;;;;;;1.70;1.60;;;;;;;;;;4893167;29;20043;-71
2023/12/17 13:20:39;;;;;;;2.35;1.30;;;;;;;;;;4911112;29;20040;-71
2023/12/17 13:23:05;;;;;;;1.45;1.40;;;;;;;;;;4911264;29;20021;-71
2023/12/17 13:25:31;;;;;;;2.25;1.55;;;;;;;;;;4880735;29;20096;-71
2023/12/17 13:27:57;;;;;;;1.67;1.58;;;;;;;;;;4897278;29;20032;-72
2023/12/17 13:30:25;;;;;;;1.30;1.30;;;;;;;;;;4895594;29;20479;-71
2023/12/17 13:32:52;;;;;;;3.80;1.60;;;;;;;;;;4896218;29;20047;-71
2023/12/17 13:35:18;;;;;;;1.27;1.27;;;;;;;;;;4912852;29;20051;-71
2023/12/17 13:37:44;;;;;;;1.08;1.08;;;;;;;;;;4881764;29;20067;-71
2023/12/17 13:40:12;;;;;;;1.10;1.10;;;;;;;;;;4895024;29;20090;-71
2023/12/17 13:42:39;;;;;;;1.20;1.20;;;;;;;;;;4912349;29;20135;-71
2023/12/17 13:45:05;;;;;;;1.00;1.00;;;;;;;;;;4911755;29;20036;-70
2023/12/17 13:47:31;;;;;;;1.25;0.95;;;;;;;;;;4912292;29;20099;-70
2023/12/17 13:49:57;;;;;;;1.55;1.55;;;;;;;;;;4909653;29;20052;-71
2023/12/17 13:52:23;;;;;;;1.20;1.20;;;;;;;;;;4904284;29;20080;-70
2023/12/17 13:54:48;;;;;;;1.08;1.08;;;;;;;;;;4907835;29;20036;-71
2023/12/17 13:57:17;;;;;;;1.55;1.45;;;;;;;;;;4911747;29;20095;-71
2023/12/17 13:59:44;;;;;;;1.52;1.38;;;;;;;;;;4912008;29;20635;-71
2023/12/17 14:02:10;;;;;;;1.85;1.55;;;;;;;;;;4902545;29;20036;-71
2023/12/17 14:04:36;;;;;;;1.10;1.10;;;;;;;;;;4908768;29;20063;-70
2023/12/17 14:07:02;;;;;;;1.60;1.50;;;;;;;;;;4900401;29;20036;-70
2023/12/17 14:09:28;;;;;;;1.40;1.30;;;;;;;;;;4911955;29;20144;-70
2023/12/17 14:11:53;;;;;;;1.45;1.35;;;;;;;;;;4902168;29;20081;-71
2023/12/17 14:14:20;;;;;;;1.10;1.10;;;;;;;;;;4894837;29;20044;-72
2023/12/17 14:16:45;;;;;;;1.83;1.17;;;;;;;;;;4895124;29;20028;-70
2023/12/17 14:19:11;;;;;;;3.15;1.60;;;;;;;;;;4912870;29;20497;-71
2023/12/17 14:21:38;;;;;;;1.75;1.17;;;;;;;;;;4915020;29;20040;-71
2023/12/17 14:24:03;;;;;;;1.00;1.00;;;;;;;;;;4910962;29;20036;-72
2023/12/17 14:26:29;;;;;;;1.98;1.17;;;;;;;;;;4910762;29;20066;-71
2023/12/17 14:28:55;;;;;;;2.08;1.25;;;;;;;;;;4911332;29;20032;-72
2023/12/17 14:31:29;;;;;;;3.10;1.30;;;;;;;;;;4898687;29;20080;-71
2023/12/17 14:33:55;;;;;;;1.10;1.10;;;;;;;;;;4881732;29;20118;-72
2023/12/17 14:36:21;;;;;;;1.60;1.50;;;;;;;;;;4883920;29;20300;-72
2023/12/17 14:38:47;;;;;;;1.00;1.00;;;;;;;;;;4917643;29;20024;-71